createdAt,value
2019-02-11T00:00:33.679Z,1.50
2019-02-11T00:03:02.759Z,1.20
2019-02-11T00:05:31.779Z,1.43
2019-02-11T00:08:00.825Z,1.30
2019-02-11T00:10:29.943Z,1.47
2019-02-11T00:12:58.948Z,1.70
2019-02-11T00:15:28.073Z,1.53
2019-02-11T00:17:57.108Z,1.60
2019-02-11T00:20:26.208Z,1.63
2019-02-11T00:22:55.284Z,1.60
2019-02-11T00:25:24.330Z,2.10
2019-02-11T00:27:53.408Z,2.50
2019-02-11T00:30:22.431Z,2.30
2019-02-11T00:32:51.465Z,2.50
2019-02-11T00:35:20.464Z,2.40
2019-02-11T00:37:49.565Z,2.63
2019-02-11T00:40:18.934Z,2.90
2019-02-11T00:42:48.006Z,3.00
2019-02-11T00:45:17.070Z,2.60
2019-02-11T00:47:46.153Z,2.47
2019-02-11T00:50:15.181Z,2.50
2019-02-11T00:52:44.312Z,2.50
2019-02-11T00:55:14.592Z,2.23
2019-02-11T00:57:43.575Z,3.00
2019-02-11T01:00:13.933Z,2.90
2019-02-11T01:02:42.924Z,3.03
2019-02-11T01:05:13.897Z,3.20
2019-02-11T01:07:42.683Z,3.70
2019-02-11T01:10:12.116Z,4.10
2019-02-11T01:12:41.124Z,4.90
2019-02-11T01:15:11.804Z,5.97
2019-02-11T01:17:41.061Z,5.33
2019-02-11T01:20:11.883Z,6.27
2019-02-11T01:22:40.868Z,4.10
2019-02-11T01:25:10.220Z,5.07
2019-02-11T01:27:39.330Z,5.30
2019-02-11T01:30:11.149Z,5.90
2019-02-11T01:32:40.663Z,5.87
2019-02-11T01:35:09.785Z,6.50
2019-02-11T01:37:38.829Z,6.17
2019-02-11T01:40:10.313Z,5.63
2019-02-11T01:42:39.535Z,5.43
2019-02-11T01:45:10.666Z,5.67
2019-02-11T01:47:39.716Z,5.17
2019-02-11T01:50:11.125Z,5.47
2019-02-11T01:52:40.156Z,5.00
2019-02-11T01:55:09.285Z,4.70
2019-02-11T01:57:38.339Z,4.63
2019-02-11T02:00:10.913Z,5.23
2019-02-11T02:02:40.026Z,4.07
2019-02-11T02:05:09.135Z,5.43
2019-02-11T02:07:38.176Z,4.53
2019-02-11T02:10:08.764Z,4.97
2019-02-11T02:12:37.819Z,5.23
2019-02-11T02:15:06.931Z,4.40
2019-02-11T02:17:35.960Z,4.57
2019-02-11T02:20:05.651Z,4.50
2019-02-11T02:22:34.735Z,4.53
2019-02-11T02:25:03.750Z,3.90
2019-02-11T02:27:32.844Z,4.63
2019-02-11T02:30:01.898Z,4.57
2019-02-11T02:32:30.919Z,3.80
2019-02-11T02:34:59.919Z,3.97
2019-02-11T02:37:29.027Z,3.77
2019-02-11T02:39:58.032Z,4.43
2019-02-11T02:42:27.156Z,4.70
2019-02-11T02:44:56.167Z,4.50
2019-02-11T02:47:25.218Z,5.13
2019-02-11T02:49:54.310Z,4.03
2019-02-11T02:52:23.442Z,4.70
2019-02-11T02:54:52.622Z,4.73
2019-02-11T02:57:21.683Z,3.83
2019-02-11T02:59:50.713Z,4.00
2019-02-11T03:02:19.826Z,4.60
2019-02-11T03:04:48.836Z,3.43
2019-02-11T03:07:17.884Z,4.63
2019-02-11T03:09:46.904Z,4.00
2019-02-11T03:12:15.944Z,3.70
2019-02-11T03:14:45.045Z,2.97
2019-02-11T03:17:14.084Z,3.47
2019-02-11T03:19:43.226Z,2.90
2019-02-11T03:22:12.231Z,2.67
2019-02-11T03:24:41.350Z,3.43
2019-02-11T03:27:10.357Z,3.63
2019-02-11T03:29:39.375Z,2.57
2019-02-11T03:32:08.378Z,3.10
2019-02-11T03:34:37.500Z,2.73
2019-02-11T03:37:06.585Z,2.10
2019-02-11T03:39:35.612Z,1.93
2019-02-11T03:42:04.621Z,2.07
2019-02-11T03:44:33.745Z,2.03
2019-02-11T03:47:02.749Z,1.73
2019-02-11T03:49:31.816Z,2.00
2019-02-11T03:52:00.819Z,1.80
2019-02-11T03:54:30.542Z,1.40
2019-02-11T03:56:59.544Z,1.77
2019-02-11T03:59:28.637Z,1.57
2019-02-11T04:01:57.691Z,1.43
2019-02-11T04:04:26.850Z,1.30
2019-02-11T04:06:55.956Z,2.07
2019-02-11T04:09:24.990Z,1.90
2019-02-11T04:11:54.024Z,2.00
2019-02-11T04:14:25.204Z,1.83
2019-02-11T04:16:53.849Z,1.67
2019-02-11T04:19:22.888Z,1.60
2019-02-11T04:22:08.296Z,1.70
2019-02-11T04:24:37.413Z,1.90
2019-02-11T04:27:06.536Z,2.57
2019-02-11T04:29:35.599Z,1.80
2019-02-11T04:32:04.679Z,1.70
2019-02-11T04:34:33.723Z,2.07
2019-02-11T04:37:02.806Z,2.57
2019-02-11T04:39:31.837Z,2.20
2019-02-11T04:42:00.932Z,2.87
2019-02-11T04:44:33.942Z,2.13
2019-02-11T04:47:00.264Z,1.93
2019-02-11T04:49:29.283Z,2.57
2019-02-11T04:51:58.938Z,2.80
2019-02-11T04:54:28.112Z,3.33
2019-02-11T04:56:57.121Z,2.23
2019-02-11T04:59:26.184Z,3.10
2019-02-11T05:01:55.214Z,2.67
2019-02-11T05:04:24.240Z,2.40
2019-02-11T05:06:53.251Z,2.40
2019-02-11T05:09:22.360Z,1.90
2019-02-11T05:11:51.488Z,2.30
2019-02-11T05:14:20.631Z,2.23
2019-02-11T05:16:49.385Z,2.67
2019-02-11T05:19:18.521Z,2.17
2019-02-11T05:21:47.545Z,2.03
2019-02-11T05:24:16.574Z,1.90
2019-02-11T05:26:45.601Z,2.50
2019-02-11T05:29:14.633Z,2.30
2019-02-11T05:31:43.647Z,2.20
2019-02-11T05:34:12.660Z,3.47
2019-02-11T05:36:41.759Z,1.97
2019-02-11T05:39:10.925Z,2.10
2019-02-11T05:41:40.045Z,2.47
2019-02-11T05:44:09.282Z,2.00
2019-02-11T05:46:38.434Z,2.50
2019-02-11T05:49:07.631Z,2.33
2019-02-11T05:51:36.795Z,2.30
2019-02-11T05:54:05.912Z,2.00
2019-02-11T05:56:34.982Z,2.10
2019-02-11T05:59:03.996Z,2.13
2019-02-11T06:01:33.103Z,1.43
2019-02-11T06:04:02.176Z,1.97
2019-02-11T06:06:31.261Z,1.83
2019-02-11T06:09:00.519Z,2.50
2019-02-11T06:11:29.659Z,2.67
2019-02-11T06:13:58.270Z,2.00
2019-02-11T06:16:27.402Z,3.77
2019-02-11T06:18:56.421Z,2.30
2019-02-11T06:21:25.456Z,2.40
2019-02-11T06:23:55.002Z,2.20
2019-02-11T06:26:24.011Z,2.33
2019-02-11T06:28:53.100Z,2.13
2019-02-11T06:31:22.182Z,1.50
2019-02-11T06:33:51.264Z,1.97
2019-02-11T06:36:20.343Z,1.77
2019-02-11T06:38:49.349Z,1.87
2019-02-11T06:41:18.423Z,1.90
2019-02-11T06:43:47.433Z,1.80
2019-02-11T06:46:16.720Z,1.67
2019-02-11T06:48:45.752Z,2.47
2019-02-11T06:51:14.804Z,1.90
2019-02-11T06:53:43.831Z,2.03
2019-02-11T06:56:12.947Z,2.13
2019-02-11T06:58:42.104Z,2.70
2019-02-11T07:01:11.229Z,1.90
2019-02-11T07:03:40.244Z,1.70
2019-02-11T07:06:09.299Z,2.53
2019-02-11T07:08:38.317Z,2.37
2019-02-11T07:11:07.355Z,1.93
2019-02-11T07:13:36.472Z,2.33
2019-02-11T07:16:05.562Z,2.70
2019-02-11T07:18:37.032Z,2.37
2019-02-11T07:21:05.195Z,2.30
2019-02-11T07:23:34.337Z,2.20
2019-02-11T07:26:03.347Z,2.20
2019-02-11T07:28:32.544Z,1.90
2019-02-11T07:31:01.568Z,1.97
2019-02-11T07:33:33.411Z,1.97
2019-02-11T07:36:02.428Z,1.63
2019-02-11T07:38:31.528Z,2.77
2019-02-11T07:41:01.025Z,2.20
2019-02-11T07:43:33.867Z,1.70
2019-02-11T07:46:13.766Z,1.93
2019-02-11T07:48:42.891Z,1.77
2019-02-11T07:51:12.087Z,2.17
2019-02-11T07:53:41.236Z,1.70
2019-02-11T07:56:10.241Z,2.20
2019-02-11T07:58:39.277Z,1.70
2019-02-11T08:01:08.308Z,1.90
2019-02-11T08:03:37.385Z,2.40
2019-02-11T08:06:06.399Z,1.80
2019-02-11T08:08:35.571Z,2.00
2019-02-11T08:11:05.221Z,2.30
2019-02-11T08:13:34.283Z,2.13
2019-02-11T08:16:03.292Z,3.13
2019-02-11T08:18:32.463Z,2.37
2019-02-11T08:21:01.493Z,2.30
2019-02-11T08:23:30.644Z,2.20
2019-02-11T08:25:59.686Z,2.20
2019-02-11T08:28:28.866Z,2.30
2019-02-11T08:30:57.904Z,2.10
2019-02-11T08:33:26.944Z,2.43
2019-02-11T08:35:55.978Z,2.10
2019-02-11T08:38:28.145Z,3.13
2019-02-11T08:40:57.178Z,2.20
2019-02-11T08:43:26.212Z,2.33
2019-02-11T08:45:55.286Z,2.10
2019-02-11T08:48:24.492Z,2.70
2019-02-11T08:50:53.502Z,2.20
2019-02-11T08:53:22.528Z,1.93
2019-02-11T08:55:51.557Z,2.53
2019-02-11T08:58:20.592Z,2.63
2019-02-11T09:00:49.597Z,2.33
2019-02-11T09:03:18.645Z,2.87
2019-02-11T09:05:47.689Z,2.67
2019-02-11T09:08:16.733Z,2.67
2019-02-11T09:10:45.841Z,2.17
2019-02-11T09:13:14.973Z,2.40
2019-02-11T09:15:44.112Z,2.70
2019-02-11T09:18:13.232Z,2.73
2019-02-11T09:20:42.401Z,3.37
2019-02-11T09:23:11.401Z,2.20
2019-02-11T09:25:40.428Z,2.23
2019-02-11T09:28:09.549Z,2.93
2019-02-11T09:30:39.877Z,3.33
2019-02-11T09:33:09.040Z,3.03
2019-02-11T09:35:38.075Z,2.40
2019-02-11T09:38:07.081Z,3.07
2019-02-11T09:40:36.151Z,2.73
2019-02-11T09:43:05.224Z,3.23
2019-02-11T09:45:34.256Z,5.30
2019-02-11T09:48:03.358Z,2.67
2019-02-11T09:50:41.294Z,2.90
2019-02-11T09:53:10.403Z,3.77
2019-02-11T09:55:39.671Z,2.53
2019-02-11T09:58:08.779Z,3.60
2019-02-11T10:00:37.974Z,3.00
2019-02-11T10:03:07.147Z,2.40
2019-02-11T10:05:37.246Z,2.83
2019-02-11T10:08:06.318Z,3.03
2019-02-11T10:10:35.444Z,2.60
2019-02-11T10:13:04.491Z,2.57
2019-02-11T10:15:33.524Z,2.80
2019-02-11T10:18:02.552Z,2.57
2019-02-11T10:20:31.698Z,2.40
2019-02-11T10:23:00.705Z,3.00
2019-02-11T10:25:29.823Z,3.00
2019-02-11T10:28:01.931Z,2.90
2019-02-11T10:30:30.962Z,1.90
2019-02-11T10:32:59.987Z,2.70
2019-02-11T10:35:29.046Z,2.60
2019-02-11T10:37:58.160Z,2.47
2019-02-11T10:40:27.187Z,2.70
2019-02-11T10:42:56.211Z,2.17
2019-02-11T10:45:25.521Z,2.53
2019-02-11T10:47:54.829Z,2.27
2019-02-11T10:50:24.068Z,2.50
2019-02-11T10:52:53.092Z,3.33
2019-02-11T10:55:22.240Z,4.00
2019-02-11T10:57:51.284Z,3.00
2019-02-11T11:00:22.041Z,3.13
2019-02-11T11:02:51.153Z,3.00
2019-02-11T11:05:20.217Z,3.43
2019-02-11T11:07:49.343Z,2.27
2019-02-11T11:10:21.252Z,4.17
2019-02-11T11:12:50.504Z,3.60
2019-02-11T11:15:20.008Z,2.83
2019-02-11T11:17:49.128Z,2.60
2019-02-11T11:20:18.320Z,2.60
2019-02-11T11:22:47.396Z,2.80
2019-02-11T11:25:16.892Z,4.63
2019-02-11T11:27:46.045Z,2.57
2019-02-11T11:30:15.424Z,3.40
2019-02-11T11:32:44.659Z,2.07
2019-02-11T11:35:13.889Z,2.70
2019-02-11T11:37:42.925Z,2.20
2019-02-11T11:40:13.379Z,3.07
2019-02-11T11:42:42.515Z,2.77
2019-02-11T11:45:14.164Z,2.00
2019-02-11T11:47:43.204Z,2.20
2019-02-11T11:50:12.419Z,2.30
2019-02-11T11:52:41.472Z,2.57
2019-02-11T11:55:11.775Z,3.20
2019-02-11T11:57:40.889Z,3.33
2019-02-11T12:00:16.531Z,4.37
2019-02-11T12:03:00.389Z,2.43
2019-02-11T12:05:16.690Z,2.40
2019-02-11T12:07:46.069Z,1.57
2019-02-11T12:10:15.346Z,1.80
2019-02-11T12:12:44.394Z,2.83
2019-02-11T12:15:13.523Z,2.67
2019-02-11T12:17:43.256Z,2.60
2019-02-11T12:20:12.689Z,2.67
2019-02-11T12:22:41.805Z,3.50
2019-02-11T12:25:12.304Z,3.40
2019-02-11T12:27:41.478Z,2.73
2019-02-11T12:30:14.680Z,3.50
2019-02-11T12:32:45.041Z,2.80
2019-02-11T12:35:14.177Z,2.30
2019-02-11T12:37:44.097Z,2.70
2019-02-11T12:40:13.968Z,2.70
2019-02-11T12:42:43.953Z,3.30
2019-02-11T12:45:15.496Z,3.60
2019-02-11T12:47:44.569Z,2.70
2019-02-11T12:50:14.818Z,3.30
2019-02-11T12:52:47.737Z,3.57
2019-02-11T12:55:16.886Z,3.20
2019-02-11T12:57:55.347Z,3.53
2019-02-11T13:00:24.491Z,3.03
2019-02-11T13:02:54.455Z,2.83
2019-02-11T13:05:43.498Z,2.53
2019-02-11T13:07:55.939Z,2.30
2019-02-11T13:10:25.829Z,3.33
2019-02-11T13:12:55.833Z,2.50
2019-02-11T13:15:57.570Z,2.20
2019-02-11T13:17:57.360Z,2.70
2019-02-11T13:20:27.470Z,2.90
2019-02-11T13:22:57.421Z,3.20
2019-02-11T13:25:27.364Z,3.13
2019-02-11T13:27:57.358Z,2.70
2019-02-11T13:30:27.345Z,3.80
2019-02-11T13:32:57.286Z,2.77
2019-02-11T13:35:27.155Z,3.27
2019-02-11T13:37:57.078Z,3.37
2019-02-11T13:40:27.061Z,3.03
2019-02-11T13:42:57.045Z,2.30
2019-02-11T13:45:26.971Z,2.67
2019-02-11T13:47:58.776Z,2.43
2019-02-11T13:50:28.905Z,4.10
2019-02-11T13:52:59.006Z,2.93
2019-02-11T13:55:31.162Z,2.33
2019-02-11T13:58:00.505Z,3.50
2019-02-11T14:00:32.594Z,3.13
2019-02-11T14:03:04.476Z,2.70
2019-02-11T14:05:34.591Z,2.40
2019-02-11T14:08:04.547Z,2.90
2019-02-11T14:10:34.512Z,2.53
2019-02-11T14:13:05.211Z,2.73
2019-02-11T14:15:35.264Z,2.97
2019-02-11T14:18:13.751Z,4.30
2019-02-11T14:20:49.016Z,2.73
2019-02-11T14:23:14.514Z,2.53
2019-02-11T14:25:47.092Z,2.90
2019-02-11T14:28:16.127Z,2.97
2019-02-11T14:30:46.057Z,3.20
2019-02-11T14:33:16.097Z,2.07
2019-02-11T14:35:46.098Z,2.53
2019-02-11T14:38:16.017Z,2.43
2019-02-11T14:40:46.204Z,3.40
2019-02-11T14:43:16.185Z,3.07
2019-02-11T14:45:46.263Z,3.03
2019-02-11T14:48:27.239Z,2.90
2019-02-11T14:50:47.832Z,3.20
2019-02-11T14:53:17.716Z,2.10
2019-02-11T14:55:47.655Z,2.30
2019-02-11T14:58:17.553Z,4.17
2019-02-11T15:00:47.569Z,2.70
2019-02-11T15:03:17.449Z,2.47
2019-02-11T15:05:47.394Z,2.40
2019-02-11T15:08:17.369Z,3.17
2019-02-11T15:10:47.369Z,2.83
2019-02-11T15:13:17.291Z,3.27
2019-02-11T15:15:47.195Z,3.60
2019-02-11T15:18:17.097Z,2.13
2019-02-11T15:20:47.011Z,3.40
2019-02-11T15:23:16.988Z,2.53
2019-02-11T15:25:46.949Z,5.03
2019-02-11T15:28:16.940Z,2.67
2019-02-11T15:30:46.848Z,3.43
2019-02-11T15:33:16.819Z,3.13
2019-02-11T15:35:48.671Z,3.43
2019-02-11T15:38:18.095Z,3.40
2019-02-11T15:40:47.539Z,3.30
2019-02-11T15:43:16.955Z,2.50
2019-02-11T15:45:46.867Z,4.23
2019-02-11T15:48:16.786Z,3.00
2019-02-11T15:50:46.768Z,3.43
2019-02-11T15:53:16.659Z,3.50
2019-02-11T15:55:46.698Z,3.30
2019-02-11T15:58:16.629Z,3.60
2019-02-11T16:00:46.731Z,3.60
2019-02-11T16:03:16.858Z,4.10
2019-02-11T16:05:49.625Z,3.03
2019-02-11T16:08:18.339Z,3.33
2019-02-11T16:10:48.877Z,3.30
2019-02-11T16:13:18.987Z,3.97
2019-02-11T16:15:50.195Z,3.60
2019-02-11T16:18:23.633Z,2.90
2019-02-11T16:20:54.093Z,4.00
2019-02-11T16:23:24.185Z,3.57
2019-02-11T16:25:56.751Z,3.60
2019-02-11T16:28:30.430Z,3.37
2019-02-11T16:31:00.428Z,3.70
2019-02-11T16:33:30.364Z,2.97
2019-02-11T16:36:00.384Z,4.13
2019-02-11T16:38:30.836Z,2.60
2019-02-11T16:41:02.037Z,3.10
2019-02-11T16:43:31.952Z,3.23
2019-02-11T16:46:03.197Z,4.60
2019-02-11T16:48:33.182Z,3.97
2019-02-11T16:51:03.103Z,3.30
2019-02-11T16:53:33.431Z,3.07
2019-02-11T16:56:03.414Z,4.33
2019-02-11T16:58:33.464Z,4.40
2019-02-11T17:01:03.454Z,3.60
2019-02-11T17:03:33.385Z,3.13
2019-02-11T17:06:03.308Z,2.90
2019-02-11T17:08:33.249Z,3.03
2019-02-11T17:11:03.212Z,3.80
2019-02-11T17:13:33.203Z,3.07
2019-02-11T17:16:03.436Z,3.00
2019-02-11T17:18:33.410Z,3.03
2019-02-11T17:21:03.323Z,3.57
2019-02-11T17:23:33.376Z,3.60
2019-02-11T17:26:03.348Z,2.90
2019-02-11T17:28:33.297Z,3.00
2019-02-11T17:31:04.790Z,4.03
2019-02-11T17:33:34.717Z,3.77
2019-02-11T17:36:04.616Z,2.90
2019-02-11T17:38:34.564Z,3.63
2019-02-11T17:41:04.660Z,2.80
2019-02-11T17:43:34.689Z,2.60
2019-02-11T17:46:04.689Z,4.37
2019-02-11T17:48:34.707Z,3.37
2019-02-11T17:51:04.860Z,2.60
2019-02-11T17:53:34.813Z,3.90
2019-02-11T17:56:05.597Z,3.30
2019-02-11T17:58:35.489Z,3.27
2019-02-11T18:01:05.585Z,5.50
2019-02-11T18:03:35.508Z,3.33
2019-02-11T18:06:05.408Z,3.90
2019-02-11T18:08:35.400Z,3.23
2019-02-11T18:11:05.394Z,2.80
2019-02-11T18:13:35.308Z,3.57
2019-02-11T18:16:05.286Z,3.20
2019-02-11T18:18:36.146Z,3.37
2019-02-11T18:21:06.117Z,2.87
2019-02-11T18:23:36.466Z,3.10
2019-02-11T18:26:06.372Z,2.60
2019-02-11T18:28:36.423Z,3.10
2019-02-11T18:31:06.353Z,3.10
2019-02-11T18:33:37.988Z,3.93
2019-02-11T18:36:11.238Z,3.20
2019-02-11T18:38:41.297Z,2.93
2019-02-11T18:41:11.277Z,3.03
2019-02-11T18:43:42.797Z,3.40
2019-02-11T18:46:12.768Z,3.53
2019-02-11T18:48:42.764Z,3.03
2019-02-11T18:51:12.681Z,3.23
2019-02-11T18:53:42.579Z,3.27
2019-02-11T18:56:12.558Z,3.50
2019-02-11T18:58:42.634Z,2.70
2019-02-11T19:01:12.537Z,2.70
2019-02-11T19:03:42.447Z,2.70
2019-02-11T19:06:12.345Z,3.23
2019-02-11T19:08:42.294Z,2.43
2019-02-11T19:11:12.231Z,3.87
2019-02-11T19:13:42.163Z,4.07
2019-02-11T19:16:12.211Z,2.50
2019-02-11T19:18:42.134Z,2.30
2019-02-11T19:21:12.017Z,3.23
2019-02-11T19:23:42.096Z,2.60
2019-02-11T19:26:12.201Z,2.60
2019-02-11T19:28:42.154Z,3.60
2019-02-11T19:31:12.486Z,2.20
2019-02-11T19:33:42.472Z,3.20
2019-02-11T19:36:12.461Z,2.53
2019-02-11T19:38:42.428Z,3.43
2019-02-11T19:41:12.590Z,2.67
2019-02-11T19:43:42.554Z,3.20
2019-02-11T19:46:12.523Z,2.83
2019-02-11T19:48:42.555Z,2.13
2019-02-11T19:51:12.461Z,2.87
2019-02-11T19:53:42.369Z,2.23
2019-02-11T19:56:12.296Z,2.97
2019-02-11T19:58:42.264Z,2.93
2019-02-11T20:01:12.283Z,2.40
2019-02-11T20:03:42.188Z,2.73
2019-02-11T20:06:12.110Z,2.30
2019-02-11T20:08:42.019Z,2.77
2019-02-11T20:11:11.986Z,3.03
2019-02-11T20:13:41.957Z,4.00
2019-02-11T20:16:11.877Z,2.40
2019-02-11T20:18:41.792Z,3.27
2019-02-11T20:21:11.730Z,2.50
2019-02-11T20:23:41.620Z,5.23
2019-02-11T20:26:11.788Z,3.00
2019-02-11T20:28:41.699Z,2.30
2019-02-11T20:31:11.618Z,2.77
2019-02-11T20:33:41.524Z,2.83
2019-02-11T20:36:11.558Z,3.33
2019-02-11T20:38:41.481Z,2.77
2019-02-11T20:41:11.476Z,2.90
2019-02-11T20:43:41.397Z,2.40
2019-02-11T20:46:11.303Z,2.90
2019-02-11T20:48:41.278Z,2.50
2019-02-11T20:51:11.194Z,2.30
2019-02-11T20:53:41.103Z,1.93
2019-02-11T20:56:11.143Z,3.80
2019-02-11T20:58:41.064Z,3.17
2019-02-11T21:01:11.089Z,2.47
2019-02-11T21:03:40.978Z,3.17
2019-02-11T21:06:10.924Z,3.10
2019-02-11T21:08:40.887Z,2.50
2019-02-11T21:11:12.570Z,2.27
2019-02-11T21:13:42.606Z,2.50
2019-02-11T21:16:12.621Z,2.33
2019-02-11T21:18:42.523Z,3.83
2019-02-11T21:21:12.512Z,2.50
2019-02-11T21:23:42.663Z,2.93
2019-02-11T21:26:12.687Z,3.33
2019-02-11T21:28:42.598Z,3.40
2019-02-11T21:31:14.343Z,2.60
2019-02-11T21:33:44.300Z,2.83
2019-02-11T21:36:14.222Z,3.10
2019-02-11T21:38:44.132Z,2.33
2019-02-11T21:41:14.051Z,2.23
2019-02-11T21:43:43.952Z,2.27
2019-02-11T21:46:13.924Z,2.60
2019-02-11T21:48:43.924Z,2.60
2019-02-11T21:51:13.948Z,2.17
2019-02-11T21:53:43.845Z,2.00
2019-02-11T21:56:13.857Z,1.80
2019-02-11T21:58:43.847Z,2.47
2019-02-11T22:01:14.022Z,4.07
2019-02-11T22:03:43.941Z,1.97
2019-02-11T22:06:14.040Z,2.17
2019-02-11T22:08:44.472Z,2.87
2019-02-11T22:11:14.465Z,2.20
2019-02-11T22:13:44.415Z,2.00
2019-02-11T22:16:14.413Z,2.23
2019-02-11T22:18:44.421Z,2.57
2019-02-11T22:21:14.489Z,2.13
2019-02-11T22:23:44.409Z,2.00
2019-02-11T22:26:14.304Z,1.77
2019-02-11T22:28:44.209Z,1.90
2019-02-11T22:31:14.123Z,1.87
2019-02-11T22:33:44.104Z,1.80
2019-02-11T22:36:14.180Z,2.13
2019-02-11T22:38:44.105Z,2.33
2019-02-11T22:41:14.005Z,2.37
2019-02-11T22:43:43.912Z,2.23
2019-02-11T22:46:13.827Z,1.90
2019-02-11T22:48:43.752Z,2.20
2019-02-11T22:51:13.712Z,2.10
2019-02-11T22:53:44.409Z,1.80
2019-02-11T22:56:14.315Z,2.17
2019-02-11T22:58:44.240Z,3.07
2019-02-11T23:01:14.418Z,1.50
2019-02-11T23:03:44.341Z,2.00
2019-02-11T23:06:14.296Z,2.00
2019-02-11T23:08:44.209Z,2.20
2019-02-11T23:11:14.184Z,2.20
2019-02-11T23:13:44.139Z,2.30
2019-02-11T23:16:14.083Z,2.20
2019-02-11T23:18:44.065Z,3.70
2019-02-11T23:21:14.036Z,2.03
2019-02-11T23:23:44.074Z,2.27
2019-02-11T23:26:13.909Z,2.20
2019-02-11T23:28:43.917Z,1.73
2019-02-11T23:31:14.004Z,1.53
2019-02-11T23:33:43.942Z,1.87
2019-02-11T23:36:13.813Z,1.60
2019-02-11T23:38:43.860Z,2.00
2019-02-11T23:41:14.941Z,1.70
2019-02-11T23:43:44.855Z,1.43
2019-02-11T23:46:14.775Z,1.70
2019-02-11T23:48:44.694Z,1.70
2019-02-11T23:51:14.605Z,2.37
2019-02-11T23:53:44.512Z,1.50
2019-02-11T23:56:14.478Z,1.70
2019-02-11T23:58:44.392Z,2.07
